Galway, New York
Current Conditions -  °F | °C
As of 9:15 AM on Thursday 27 Nov 2014 (Local Time) from KNY0 Reporting Station
Overcast Overcast  
Wind Chill: 26°   Ceiling: 1400
Heat Index: 26°   Visibility: 10mi
Dew Point: 24°   Wind: 3mph
Humidity: 92%   Direction: 260°W
Pressure: 29.97"   Gusts: NA
Location:  43.02°N, 74.03°W
Report Text: KNY0 271415Z AUTO 26003KT 10SM BKN014 OVC024 M03/M05 A2997 RMK AO2 T10351046
Loading
Personal Weather Stations






























Interactive Weather Map New forecast layout! Learn more

10-Day Weather Forecast

Advertisements
Track Severe Weather on mobile